Time;durP1;ratioP1;P1;durP2;ratioP2;P2;SDS_P1;SDS_P2;PMS_P1;PMS_P2;Temp;Humidity;BMP_temperature;BMP_pressure;BME280_temperature;BME280_humidity;BME280_pressure;Samples;Min_cycle;Max_cycle;Signal;HPM_P1;HPM_P2
2023/09/24 00:01:44;;;;;;;5.97;4.32;;;;;;;11.04;100.00;102035.22;4948768;28;20043;-76
2023/09/24 00:04:10;;;;;;;8.43;5.28;;;;;;;11.01;100.00;102031.09;4955752;28;20055;-76
2023/09/24 00:06:36;;;;;;;7.18;3.88;;;;;;;10.99;100.00;102029.59;4953714;28;20066;-76
2023/09/24 00:09:02;;;;;;;6.15;3.75;;;;;;;10.95;100.00;102028.22;4932208;28;20039;-76
2023/09/24 00:11:27;;;;;;;6.80;3.58;;;;;;;10.94;100.00;102037.75;4925143;28;20410;-76
2023/09/24 00:13:54;;;;;;;6.72;4.03;;;;;;;10.95;100.00;102044.59;4940859;28;20043;-76
2023/09/24 00:16:19;;;;;;;6.25;3.58;;;;;;;10.94;100.00;102039.53;4941541;28;20062;-76
2023/09/24 00:18:45;;;;;;;8.52;3.95;;;;;;;10.89;100.00;102045.94;4953334;28;20035;-76
2023/09/24 00:21:10;;;;;;;8.20;3.28;;;;;;;10.86;100.00;102037.56;4956456;28;20046;-76
2023/09/24 00:23:36;;;;;;;7.15;3.47;;;;;;;10.78;100.00;102034.81;4936518;28;20098;-75
2023/09/24 00:26:02;;;;;;;7.38;3.47;;;;;;;10.69;100.00;102039.78;4938059;28;20122;-76
2023/09/24 00:28:27;;;;;;;6.93;3.33;;;;;;;10.62;100.00;102038.63;4938062;28;20066;-75
2023/09/24 00:30:54;;;;;;;7.47;3.08;;;;;;;10.56;100.00;102044.34;4941332;28;20045;-76
2023/09/24 00:33:21;;;;;;;5.00;3.10;;;;;;;10.51;100.00;102044.72;4932918;28;20040;-76
2023/09/24 00:35:47;;;;;;;4.45;3.67;;;;;;;10.46;100.00;102048.63;4933905;29;20072;-76
2023/09/24 00:38:13;;;;;;;6.57;3.17;;;;;;;10.42;100.00;102050.66;4948348;28;20050;-77
2023/09/24 00:40:38;;;;;;;10.07;3.55;;;;;;;10.39;100.00;102060.44;4930741;28;20035;-76
2023/09/24 00:43:31;;;;;;;6.03;3.80;;;;;;;10.36;100.00;102042.53;4947500;28;20035;-76
2023/09/24 00:45:59;;;;;;;4.32;3.33;;;;;;;10.32;100.00;102048.00;4938234;28;20082;-75
2023/09/24 00:48:27;;;;;;;5.28;3.03;;;;;;;10.32;100.00;102053.19;4947265;28;20102;-76
2023/09/24 00:50:57;;;;;;;9.57;4.10;;;;;;;10.30;100.00;102051.59;4937496;29;20066;-76
2023/09/24 00:53:27;;;;;;;7.68;3.83;;;;;;;10.28;100.00;102056.94;4936863;28;20031;-77
2023/09/24 00:55:53;;;;;;;7.60;3.42;;;;;;;10.25;100.00;102046.81;4937144;28;20271;-76
2023/09/24 00:58:19;;;;;;;6.03;3.60;;;;;;;10.20;100.00;102059.31;4945936;28;21465;-76
2023/09/24 01:00:46;;;;;;;4.78;3.50;;;;;;;10.14;100.00;102063.22;4937806;28;20067;-76
2023/09/24 01:03:13;;;;;;;6.50;2.70;;;;;;;10.08;100.00;102057.69;4931438;28;20043;-76
2023/09/24 01:05:38;;;;;;;5.00;2.88;;;;;;;10.03;100.00;102055.47;4953376;28;20090;-75
2023/09/24 01:08:05;;;;;;;6.65;3.10;;;;;;;10.01;100.00;102054.75;4929042;28;20043;-76
2023/09/24 01:10:30;;;;;;;10.95;3.30;;;;;;;9.99;100.00;102050.66;4925597;28;20051;-76
2023/09/24 01:13:00;;;;;;;7.28;3.42;;;;;;;9.96;100.00;102054.28;4942565;28;20043;-75
2023/09/24 01:15:27;;;;;;;6.78;3.13;;;;;;;9.97;100.00;102063.72;4946567;28;20039;-76
2023/09/24 01:17:53;;;;;;;6.75;3.38;;;;;;;9.92;100.00;102061.47;4934764;28;20125;-77
2023/09/24 01:20:22;;;;;;;5.72;3.30;;;;;;;9.88;100.00;102064.44;4952603;28;20549;-77
2023/09/24 01:22:50;;;;;;;5.57;3.08;;;;;;;9.85;100.00;102068.13;4917993;29;20470;-76
2023/09/24 01:25:18;;;;;;;7.63;3.40;;;;;;;9.85;100.00;102073.28;4914830;28;20206;-76
2023/09/24 01:27:45;;;;;;;6.20;3.35;;;;;;;9.85;100.00;102075.88;4948013;28;20043;-76
2023/09/24 01:30:11;;;;;;;10.02;3.40;;;;;;;9.85;100.00;102073.28;4951664;28;20090;-76
2023/09/24 01:32:36;;;;;;;8.82;3.40;;;;;;;9.84;100.00;102076.00;4928657;28;20134;-76
2023/09/24 01:35:02;;;;;;;5.38;3.35;;;;;;;9.83;100.00;102076.94;4925315;28;20139;-75
2023/09/24 01:37:28;;;;;;;11.70;4.25;;;;;;;9.84;100.00;102081.19;4937672;28;20101;-76
2023/09/24 01:39:55;;;;;;;7.70;3.90;;;;;;;9.84;100.00;102083.78;4923561;29;20043;-77
2023/09/24 01:42:20;;;;;;;5.53;3.13;;;;;;;9.84;100.00;102076.00;4938247;28;20035;-76
2023/09/24 01:44:46;;;;;;;7.28;3.50;;;;;;;9.81;100.00;102079.63;4944413;28;20550;-76
2023/09/24 01:47:11;;;;;;;7.07;3.72;;;;;;;9.79;100.00;102073.75;4938329;28;20038;-76
2023/09/24 01:49:37;;;;;;;7.13;3.60;;;;;;;9.77;100.00;102083.41;4934119;28;20129;-76
2023/09/24 01:52:04;;;;;;;9.15;3.80;;;;;;;9.73;100.00;102079.41;4937565;28;20039;-76
2023/09/24 01:54:30;;;;;;;14.25;3.80;;;;;;;9.72;100.00;102081.19;4936555;28;20026;-76
2023/09/24 01:56:57;;;;;;;7.07;3.80;;;;;;;9.70;100.00;102085.69;4933115;28;20130;-76
2023/09/24 01:59:23;;;;;;;7.75;3.88;;;;;;;9.68;100.00;102084.97;4944993;28;20031;-75
2023/09/24 02:01:51;;;;;;;7.95;3.85;;;;;;;9.66;100.00;102083.44;4933574;28;20102;-76
2023/09/24 02:04:16;;;;;;;6.15;3.88;;;;;;;9.64;100.00;102093.06;4932710;28;20057;-76
2023/09/24 02:06:42;;;;;;;8.35;3.45;;;;;;;9.64;100.00;102082.72;4936199;28;20023;-78
2023/09/24 02:09:07;;;;;;;5.47;3.70;;;;;;;9.64;100.00;102087.91;4937235;28;20035;-76
2023/09/24 02:11:33;;;;;;;5.65;3.15;;;;;;;9.63;100.00;102089.69;4929883;28;20691;-76
2023/09/24 02:13:59;;;;;;;10.00;4.18;;;;;;;9.61;100.00;102088.97;4946143;28;20245;-77
2023/09/24 02:16:26;;;;;;;6.15;3.60;;;;;;;9.58;100.00;102084.00;4951347;28;20521;-77
2023/09/24 02:18:52;;;;;;;5.78;3.03;;;;;;;9.54;100.00;102098.97;4935405;28;20043;-76
2023/09/24 02:21:18;;;;;;;6.28;3.28;;;;;;;9.51;100.00;102090.59;4932890;28;20038;-77
2023/09/24 02:23:44;;;;;;;6.88;3.38;;;;;;;9.49;100.00;102092.50;4934067;28;20047;-77
2023/09/24 02:26:11;;;;;;;5.30;3.40;;;;;;;9.39;100.00;102094.97;4937197;28;20039;-76
2023/09/24 02:28:38;;;;;;;6.57;2.83;;;;;;;9.34;100.00;102095.31;4926397;28;20039;-76
2023/09/24 02:31:07;;;;;;;8.82;3.22;;;;;;;9.30;100.00;102090.47;4932483;29;20047;-75
2023/09/24 02:33:34;;;;;;;5.65;3.15;;;;;;;9.27;100.00;102088.13;4935652;28;20097;-76
2023/09/24 02:36:00;;;;;;;6.00;3.30;;;;;;;9.26;100.00;102091.66;4955184;28;20039;-76
2023/09/24 02:38:26;;;;;;;5.47;3.25;;;;;;;9.21;100.00;102092.00;4935132;28;20039;-76
2023/09/24 02:40:55;;;;;;;7.43;2.78;;;;;;;9.14;100.00;102088.22;4936965;28;20102;-76
2023/09/24 02:43:22;;;;;;;6.65;2.78;;;;;;;9.07;100.00;102093.03;4951928;28;20046;-75
2023/09/24 02:45:48;;;;;;;5.28;3.20;;;;;;;9.04;100.00;102093.28;4922705;28;20063;-76
2023/09/24 02:48:17;;;;;;;5.95;3.50;;;;;;;9.00;100.00;102093.59;4933133;28;20039;-78
2023/09/24 02:50:44;;;;;;;7.43;3.28;;;;;;;8.97;100.00;102092.06;4918595;28;20063;-76
2023/09/24 02:53:10;;;;;;;5.18;3.13;;;;;;;8.95;100.00;102088.78;4937717;28;20126;-76
2023/09/24 02:55:36;;;;;;;5.20;3.20;;;;;;;8.95;100.00;102087.00;4936039;28;20063;-75
2023/09/24 02:58:06;;;;;;;5.95;3.20;;;;;;;8.95;100.00;102094.78;4950704;28;20060;-77
2023/09/24 03:00:36;;;;;;;8.30;3.63;;;;;;;8.96;100.00;102099.00;4926633;28;20533;-77
2023/09/24 03:03:05;;;;;;;8.95;3.22;;;;;;;8.97;100.00;102097.25;4951439;28;20027;-77
2023/09/24 03:05:31;;;;;;;4.85;2.75;;;;;;;8.98;100.00;102105.84;4926035;28;20110;-77
2023/09/24 03:08:05;;;;;;;6.85;3.00;;;;;;;9.00;100.00;102107.34;4935767;28;20039;-77
2023/09/24 03:10:31;;;;;;;;;;;;;;;9.02;100.00;102113.25;4937589;28;20054;-76
2023/09/24 03:12:58;;;;;;;7.78;3.50;;;;;;;9.04;100.00;102115.72;4941165;28;19919;-77
2023/09/24 03:15:23;;;;;;;7.55;3.03;;;;;;;9.06;100.00;102116.44;4953306;28;20038;-76
2023/09/24 03:17:50;;;;;;;6.38;2.88;;;;;;;9.06;100.00;102126.78;4939348;28;20532;-77
2023/09/24 03:20:19;;;;;;;5.43;2.92;;;;;;;9.06;100.00;102129.38;4941014;28;20054;-75
2023/09/24 03:22:52;;;;;;;8.57;3.03;;;;;;;9.04;100.00;102128.66;4952797;28;20085;-76
2023/09/24 03:25:19;;;;;;;6.80;3.22;;;;;;;9.01;100.00;102127.13;4942721;28;20501;-75
2023/09/24 03:27:47;;;;;;;4.57;2.45;;;;;;;8.99;100.00;102131.59;4938866;28;20039;-78
2023/09/24 03:30:17;;;;;;;6.97;2.85;;;;;;;8.98;100.00;102134.28;4958237;28;20035;-77
2023/09/24 03:32:47;;;;;;;6.45;2.40;;;;;;;8.95;100.00;102137.94;4958091;28;20062;-76
2023/09/24 03:35:14;;;;;;;4.53;2.50;;;;;;;8.93;100.00;102145.00;4921160;28;20435;-76
2023/09/24 03:37:43;;;;;;;5.07;2.50;;;;;;;8.91;100.00;102146.84;4937827;28;20497;-77
2023/09/24 03:40:20;;;;;;;6.85;2.90;;;;;;;8.90;100.00;102145.19;4956256;28;20039;-76
2023/09/24 03:42:48;;;;;;;8.60;3.05;;;;;;;8.88;100.00;102145.31;4922797;28;20031;-75
2023/09/24 03:45:15;;;;;;;7.68;2.92;;;;;;;8.87;100.00;102148.84;4938410;29;20499;-75
2023/09/24 03:47:41;;;;;;;5.25;2.80;;;;;;;8.86;100.00;102152.34;4959140;28;20080;-77
2023/09/24 03:50:13;;;;;;;5.45;2.60;;;;;;;8.87;100.00;102155.75;4935817;29;20090;-75
2023/09/24 03:52:45;;;;;;;5.88;2.67;;;;;;;8.86;100.00;102165.28;4936677;28;20043;-77
2023/09/24 03:55:11;;;;;;;10.10;2.58;;;;;;;8.83;100.00;102162.91;4939928;28;20070;-77
2023/09/24 03:57:39;;;;;;;8.43;2.38;;;;;;;8.79;100.00;102163.25;4954321;28;20576;-79
2023/09/24 04:00:11;;;;;;;5.05;2.30;;;;;;;8.75;100.00;102160.06;4962891;28;20031;-75
2023/09/24 04:02:39;;;;;;;4.80;2.40;;;;;;;8.71;100.00;102166.41;4949630;28;20038;-75
2023/09/24 04:05:09;;;;;;;4.97;2.17;;;;;;;8.70;100.00;102165.59;4926625;28;20418;-76
2023/09/24 04:07:37;;;;;;;6.70;2.30;;;;;;;8.70;100.00;102163.00;4937276;28;20070;-77
2023/09/24 04:10:04;;;;;;;2.95;2.00;;;;;;;8.71;100.00;102172.41;4941666;28;20041;-75
2023/09/24 04:12:33;;;;;;;4.35;2.78;;;;;;;8.72;100.00;102165.44;4941773;28;20041;-76
2023/09/24 04:15:00;;;;;;;4.70;2.38;;;;;;;8.73;100.00;102167.13;4944566;28;20035;-76
2023/09/24 04:17:26;;;;;;;7.43;2.15;;;;;;;8.71;100.00;102164.63;4924022;28;20046;-76
2023/09/24 04:19:52;;;;;;;4.30;2.55;;;;;;;8.69;100.00;102166.50;4940798;28;20043;-76
2023/09/24 04:22:18;;;;;;;3.13;1.92;;;;;;;8.68;100.00;102179.53;4939845;28;20043;-76
2023/09/24 04:24:43;;;;;;;5.68;2.20;;;;;;;8.65;100.00;102167.66;4952670;28;20035;-76
2023/09/24 04:27:09;;;;;;;3.70;2.15;;;;;;;8.62;100.00;102167.06;4958453;28;20601;-75
2023/09/24 04:29:34;;;;;;;4.25;2.20;;;;;;;8.57;100.00;102170.81;4937955;28;20046;-75
2023/09/24 04:32:00;;;;;;;4.88;2.33;;;;;;;8.53;100.00;102173.69;4956279;28;20023;-76
2023/09/24 04:34:26;;;;;;;2.95;1.80;;;;;;;8.45;100.00;102176.00;4936642;28;20487;-76
2023/09/24 04:36:51;;;;;;;6.60;2.28;;;;;;;8.38;100.00;102179.00;4953266;28;20043;-76
2023/09/24 04:39:18;;;;;;;5.07;2.00;;;;;;;8.35;100.00;102178.41;4936996;28;20039;-75
2023/09/24 04:41:43;;;;;;;5.97;2.80;;;;;;;8.29;100.00;102179.66;4937971;28;20030;-76
2023/09/24 04:44:09;;;;;;;4.80;2.40;;;;;;;8.31;100.00;102187.31;4936704;28;20093;-75
2023/09/24 04:46:35;;;;;;;7.20;2.30;;;;;;;8.32;100.00;102194.94;4938413;28;20035;-76
2023/09/24 04:49:02;;;;;;;4.18;1.83;;;;;;;8.32;100.00;102194.94;4954120;28;20039;-76
2023/09/24 04:51:28;;;;;;;5.97;2.40;;;;;;;8.34;100.00;102193.09;4958261;28;20129;-76
2023/09/24 04:53:53;;;;;;;5.05;2.42;;;;;;;8.35;100.00;102199.06;4947789;28;20114;-75
2023/09/24 04:56:19;;;;;;;5.47;2.00;;;;;;;8.34;100.00;102205.16;4941199;28;20497;-76
2023/09/24 04:58:44;;;;;;;5.63;2.33;;;;;;;8.32;100.00;102204.44;4925091;28;20032;-77
2023/09/24 05:01:10;;;;;;;5.90;2.00;;;;;;;8.29;100.00;102208.09;4940183;28;20238;-78
2023/09/24 05:03:37;;;;;;;4.00;2.20;;;;;;;8.26;100.00;102210.06;4954797;28;20032;-76
2023/09/24 05:06:05;;;;;;;7.25;2.10;;;;;;;8.19;100.00;102210.47;4940913;28;20035;-77
2023/09/24 05:08:32;;;;;;;4.55;2.22;;;;;;;8.15;100.00;102213.38;4953979;28;20514;-76
2023/09/24 05:10:58;;;;;;;5.55;1.95;;;;;;;8.13;100.00;102221.22;4928106;28;20031;-76
2023/09/24 05:13:23;;;;;;;7.75;2.30;;;;;;;8.09;100.00;102212.03;4953640;28;20536;-76
2023/09/24 05:15:59;;;;;;;5.95;2.10;;;;;;;8.07;100.00;102219.06;4952271;28;20043;-76
2023/09/24 05:18:28;;;;;;;6.05;2.25;;;;;;;8.05;100.00;102215.75;4934643;28;20118;-76
2023/09/24 05:20:54;;;;;;;6.60;2.10;;;;;;;8.02;100.00;102218.53;4939405;28;20752;-76
2023/09/24 05:23:21;;;;;;;4.43;2.28;;;;;;;8.00;100.00;102212.66;4954164;28;20035;-74
2023/09/24 05:25:46;;;;;;;5.93;2.60;;;;;;;7.98;100.00;102210.16;4957371;28;20054;-76
2023/09/24 05:28:12;;;;;;;4.85;2.10;;;;;;;7.99;100.00;102214.41;4942710;28;20051;-76
2023/09/24 05:30:38;;;;;;;5.13;2.25;;;;;;;7.98;100.00;102212.75;4937843;28;20035;-75
2023/09/24 05:33:04;;;;;;;7.45;2.22;;;;;;;7.96;100.00;102219.78;4937981;28;20489;-76
2023/09/24 05:35:31;;;;;;;5.20;2.20;;;;;;;7.95;100.00;102225.91;4930713;28;20064;-76
2023/09/24 05:37:56;;;;;;;6.70;2.30;;;;;;;7.94;100.00;102218.25;4955216;28;20453;-76
2023/09/24 05:40:22;;;;;;;8.07;2.20;;;;;;;7.93;100.00;102227.75;4939264;29;20051;-77
2023/09/24 05:42:47;;;;;;;5.07;2.55;;;;;;;7.92;100.00;102230.44;4951800;28;20039;-75
2023/09/24 05:45:13;;;;;;;4.15;2.55;;;;;;;7.93;100.00;102237.25;4937777;28;20031;-76
2023/09/24 05:47:38;;;;;;;5.35;2.30;;;;;;;7.92;100.00;102239.00;4949652;28;20529;-75
2023/09/24 05:50:04;;;;;;;5.57;2.45;;;;;;;7.93;100.00;102242.41;4957431;28;20043;-75
2023/09/24 05:52:30;;;;;;;7.68;2.22;;;;;;;7.94;100.00;102246.66;4953276;28;20089;-76
2023/09/24 05:54:56;;;;;;;8.88;2.20;;;;;;;7.95;100.00;102250.91;4949142;28;20532;-76
2023/09/24 05:57:26;;;;;;;5.88;2.40;;;;;;;7.94;100.00;102255.22;4955461;28;20126;-75
2023/09/24 05:59:53;;;;;;;7.07;2.47;;;;;;;7.96;100.00;102261.13;4954446;28;20035;-77
2023/09/24 06:02:18;;;;;;;9.63;2.80;;;;;;;7.97;100.00;102262.78;4919893;28;20032;-76
2023/09/24 06:04:43;;;;;;;7.30;2.95;;;;;;;8.02;100.00;102266.81;4947876;28;20478;-75
2023/09/24 06:07:09;;;;;;;10.20;3.05;;;;;;;8.04;100.00;102273.50;4951663;28;20043;-75
2023/09/24 06:09:34;;;;;;;9.15;2.95;;;;;;;8.05;100.00;102266.59;4963533;28;20035;-75
2023/09/24 06:12:00;;;;;;;11.10;2.90;;;;;;;8.08;100.00;102266.38;4953615;28;20031;-75
2023/09/24 06:14:25;;;;;;;11.95;2.80;;;;;;;8.12;100.00;102267.84;4952251;28;20036;-75
2023/09/24 06:16:51;;;;;;;7.60;2.80;;;;;;;8.14;100.00;102266.81;4937968;28;20031;-75
2023/09/24 06:19:17;;;;;;;4.88;3.03;;;;;;;8.16;100.00;102275.28;4922433;28;20417;-75
2023/09/24 06:21:42;;;;;;;10.57;2.80;;;;;;;8.22;100.00;102268.88;4947175;28;20112;-76
2023/09/24 06:24:08;;;;;;;12.00;3.10;;;;;;;8.30;100.00;102273.50;4959718;28;20042;-76
2023/09/24 06:26:35;;;;;;;9.50;3.15;;;;;;;8.41;100.00;102271.00;4954045;28;20509;-77
2023/09/24 06:29:00;;;;;;;12.15;3.63;;;;;;;8.64;100.00;102278.97;4951374;28;20043;-76
2023/09/24 06:31:26;;;;;;;9.93;3.25;;;;;;;9.02;100.00;102262.50;4947934;28;20054;-76
2023/09/24 06:33:51;;;;;;;13.63;3.90;;;;;;;9.64;100.00;102274.38;4934951;28;20410;-75
2023/09/24 06:36:17;;;;;;;13.20;3.70;;;;;;;10.29;100.00;102270.34;4933664;28;20106;-75
2023/09/24 06:38:44;;;;;;;7.38;3.15;;;;;;;10.91;100.00;102277.59;4933485;28;20035;-75
2023/09/24 06:41:09;;;;;;;16.58;3.45;;;;;;;11.49;100.00;102272.06;4955244;28;20053;-75
2023/09/24 06:43:35;;;;;;;11.00;3.05;;;;;;;12.16;99.05;102267.38;4952013;28;20767;-76
2023/09/24 06:46:06;;;;;;;20.40;4.28;;;;;;;12.30;95.08;102273.19;4936135;29;20405;-75
2023/09/24 06:48:31;;;;;;;10.68;2.50;;;;;;;12.45;93.12;102277.91;4952664;28;20127;-77
2023/09/24 06:51:08;;;;;;;11.80;3.17;;;;;;;12.82;91.69;102282.50;4955880;28;20560;-75
2023/09/24 06:53:34;;;;;;;8.98;2.28;;;;;;;13.28;88.92;102282.81;4931236;28;20111;-79
2023/09/24 06:55:59;;;;;;;9.60;2.70;;;;;;;13.51;87.06;102288.59;4941818;28;20041;-76
2023/09/24 06:58:25;;;;;;;9.57;2.55;;;;;;;13.65;86.32;102281.28;4933787;28;20047;-76
2023/09/24 07:00:50;;;;;;;9.15;2.17;;;;;;;13.93;87.00;102290.00;4934101;28;20097;-77
2023/09/24 07:03:16;;;;;;;4.38;2.10;;;;;;;14.25;83.40;102278.38;4931097;28;20072;-75
2023/09/24 07:05:41;;;;;;;7.00;2.40;;;;;;;14.45;82.00;102282.53;4950754;28;20505;-76
2023/09/24 07:08:07;;;;;;;6.22;1.90;;;;;;;14.60;81.13;102286.31;4931109;28;20401;-76
2023/09/24 07:10:32;;;;;;;8.57;2.58;;;;;;;14.72;81.47;102286.91;4923521;28;20039;-76
2023/09/24 07:12:58;;;;;;;8.10;2.50;;;;;;;14.51;81.32;102296.78;4933971;28;20071;-76
2023/09/24 07:15:24;;;;;;;6.65;2.10;;;;;;;14.79;80.74;102298.41;4937112;28;20171;-76
2023/09/24 07:17:49;;;;;;;9.15;2.33;;;;;;;14.93;79.39;102291.84;4935764;28;20042;-76
2023/09/24 07:20:14;;;;;;;8.32;2.13;;;;;;;14.81;78.95;102297.47;4945828;28;20475;-75
2023/09/24 07:22:40;;;;;;;8.50;2.38;;;;;;;14.90;78.97;102291.34;4952037;28;20047;-78
2023/09/24 07:25:06;;;;;;;4.82;2.92;;;;;;;15.50;77.51;102291.53;4930945;29;20042;-77
2023/09/24 07:27:31;;;;;;;12.95;2.15;;;;;;;15.42;77.57;102298.50;4937776;29;20046;-77
2023/09/24 07:29:57;;;;;;;5.65;1.88;;;;;;;15.68;76.48;102294.09;4930239;28;20035;-78
2023/09/24 07:32:23;;;;;;;6.22;2.15;;;;;;;16.09;74.59;102298.78;4948176;28;20047;-79
2023/09/24 07:34:48;;;;;;;9.77;2.20;;;;;;;16.06;74.25;102293.88;4949231;28;20039;-76
2023/09/24 07:37:14;;;;;;;10.80;2.33;;;;;;;15.84;75.75;102306.50;4933903;28;20040;-77
2023/09/24 07:39:40;;;;;;;6.68;2.00;;;;;;;16.23;73.71;102307.84;4939015;28;20055;-77
2023/09/24 07:42:07;;;;;;;7.05;1.90;;;;;;;16.30;74.17;102309.69;4938760;28;20061;-78
2023/09/24 07:44:32;;;;;;;5.13;2.38;;;;;;;16.87;73.14;102303.81;4952597;28;20066;-77
2023/09/24 07:46:59;;;;;;;6.07;2.15;;;;;;;17.16;70.05;102299.94;4938301;28;20186;-77
2023/09/24 07:49:25;;;;;;;7.15;2.35;;;;;;;17.16;70.51;102299.94;4934924;28;20036;-77
2023/09/24 07:51:50;;;;;;;5.25;2.00;;;;;;;17.41;69.38;102306.00;4939003;28;20193;-75
2023/09/24 07:54:17;;;;;;;5.70;1.80;;;;;;;16.99;69.04;102311.38;4954437;28;20417;-77
2023/09/24 07:56:43;;;;;;;8.63;1.88;;;;;;;16.47;70.69;102307.94;4950313;28;20039;-77
2023/09/24 07:59:11;;;;;;;8.70;2.13;;;;;;;16.36;73.06;102321.31;4918645;28;20097;-77
2023/09/24 08:01:37;;;;;;;9.95;1.98;;;;;;;16.05;74.50;102321.00;4935091;28;20413;-79
2023/09/24 08:04:03;;;;;;;7.10;1.60;;;;;;;16.06;75.36;102320.03;4936848;28;20043;-78
2023/09/24 08:06:29;;;;;;;6.78;1.80;;;;;;;15.97;74.91;102319.16;4933474;29;20102;-75
2023/09/24 08:08:58;;;;;;;3.83;1.63;;;;;;;16.24;75.21;102323.41;4940467;28;20043;-77
2023/09/24 08:11:24;;;;;;;6.75;2.10;;;;;;;16.32;74.13;102323.44;4932650;28;20589;-76
2023/09/24 08:13:50;;;;;;;5.30;1.70;;;;;;;16.64;72.72;102313.25;4928973;28;20067;-77
2023/09/24 08:16:15;;;;;;;7.97;1.42;;;;;;;16.85;72.06;102311.03;4948804;28;20035;-78
2023/09/24 08:18:41;;;;;;;6.22;1.80;;;;;;;16.40;73.38;102314.78;4936876;28;20182;-77
2023/09/24 08:21:06;;;;;;;7.35;1.70;;;;;;;17.01;72.00;102310.25;4937076;28;20493;-77
2023/09/24 08:23:32;;;;;;;6.05;1.50;;;;;;;17.55;70.62;102320.22;4953581;28;20036;-76
2023/09/24 08:25:59;;;;;;;6.90;1.60;;;;;;;17.73;68.11;102321.88;4945853;28;20658;-77
2023/09/24 08:28:25;;;;;;;4.72;1.40;;;;;;;18.19;66.79;102319.47;4949440;28;20070;-74
2023/09/24 08:30:50;;;;;;;4.82;1.45;;;;;;;18.14;67.87;102317.38;4936498;28;20169;-75
2023/09/24 08:33:16;;;;;;;6.68;1.55;;;;;;;18.57;65.75;102317.84;4952238;28;20050;-76
2023/09/24 08:35:41;;;;;;;8.35;1.65;;;;;;;18.68;63.91;102320.09;4950196;28;20039;-77
2023/09/24 08:38:07;;;;;;;3.20;1.33;;;;;;;18.51;64.46;102321.13;4952219;28;20063;-78
2023/09/24 08:40:33;;;;;;;4.97;1.52;;;;;;;18.64;64.58;102323.22;4953214;28;20051;-76
2023/09/24 08:42:58;;;;;;;5.38;2.10;;;;;;;19.09;63.92;102315.56;4918321;28;20139;-76
2023/09/24 08:45:28;;;;;;;9.88;1.67;;;;;;;19.55;62.09;102315.50;4948545;28;20047;-77
2023/09/24 08:47:54;;;;;;;5.50;1.25;;;;;;;19.44;62.08;102301.00;4948905;28;20036;-79
2023/09/24 08:50:21;;;;;;;6.07;1.70;;;;;;;19.13;62.08;102320.28;4947633;28;20044;-78
2023/09/24 08:52:46;;;;;;;7.60;1.40;;;;;;;19.08;62.16;102325.28;4947696;28;20083;-77
2023/09/24 08:55:14;;;;;;;4.80;1.30;;;;;;;18.84;63.33;102321.00;4921685;28;20039;-75
2023/09/24 08:57:41;;;;;;;5.25;1.60;;;;;;;19.03;63.90;102328.41;4943023;28;20976;-78
2023/09/24 09:00:11;;;;;;;6.88;1.75;;;;;;;19.06;64.31;102314.94;4950982;28;20066;-79
2023/09/24 09:02:41;;;;;;;10.80;2.88;;;;;;;19.45;64.56;102311.31;4939261;28;20042;-78
2023/09/24 09:05:22;;;;;;;7.82;2.00;;;;;;;19.74;62.41;102311.56;4936815;28;20031;-77
2023/09/24 09:08:02;;;;;;;12.02;1.70;;;;;;;19.63;61.75;102308.34;4945920;28;20053;-78
2023/09/24 09:10:32;;;;;;;11.23;1.90;;;;;;;19.61;61.34;102305.09;4948661;28;20039;-76
2023/09/24 09:13:09;;;;;;;5.30;1.52;;;;;;;19.58;61.83;102307.25;4935109;28;20039;-79
2023/09/24 09:15:37;;;;;;;4.30;1.42;;;;;;;19.76;61.99;102297.25;4934133;28;20035;-76
2023/09/24 09:18:02;;;;;;;8.18;1.73;;;;;;;19.83;62.59;102287.63;4945316;28;20050;-79
2023/09/24 09:20:43;;;;;;;5.20;1.48;;;;;;;19.72;60.41;102288.09;4952718;28;20079;-76
2023/09/24 09:23:18;;;;;;;8.25;1.67;;;;;;;19.06;59.77;102299.16;4945040;28;20204;-76
2023/09/24 09:25:52;;;;;;;5.13;1.60;;;;;;;19.14;62.18;102293.03;4930729;28;20041;-77
2023/09/24 09:28:28;;;;;;;5.88;1.55;;;;;;;18.80;61.99;102288.16;4930846;28;20039;-76
2023/09/24 09:31:12;;;;;;;6.78;2.10;;;;;;;18.89;62.69;102283.69;4950506;28;20563;-75
2023/09/24 09:33:42;;;;;;;4.97;1.50;;;;;;;18.94;64.60;102284.78;4945285;28;20047;-79
2023/09/24 09:36:30;;;;;;;6.63;2.15;;;;;;;19.20;64.66;102297.56;4946596;28;20049;-77
2023/09/24 09:38:57;;;;;;;7.57;1.55;;;;;;;19.14;63.82;102292.22;4947268;28;20062;-76
2023/09/24 09:41:24;;;;;;;6.88;1.80;;;;;;;18.87;65.47;102291.72;4949443;28;20405;-78
2023/09/24 09:43:52;;;;;;;8.02;1.85;;;;;;;19.12;62.86;102294.19;4938106;28;20126;-78
2023/09/24 09:46:20;;;;;;;6.72;1.58;;;;;;;18.80;63.88;102290.78;4936090;28;20038;-76
2023/09/24 09:48:57;;;;;;;12.30;1.83;;;;;;;18.93;65.79;102284.94;4948629;28;20039;-80
2023/09/24 09:51:24;;;;;;;7.53;1.50;;;;;;;18.75;65.93;102291.28;4933207;28;20046;-78
2023/09/24 09:53:52;;;;;;;5.82;1.17;;;;;;;18.88;64.00;102282.06;4951372;28;20062;-77
2023/09/24 09:56:19;;;;;;;5.35;1.55;;;;;;;18.81;62.81;102281.94;4933001;28;20856;-78
2023/09/24 09:58:48;;;;;;;8.57;1.25;;;;;;;18.80;62.26;102285.53;4930449;28;20039;-76
2023/09/24 10:01:15;;;;;;;7.97;1.83;;;;;;;18.98;64.07;102277.38;4934274;28;20050;-81
2023/09/24 10:03:44;;;;;;;3.75;1.05;;;;;;;19.12;63.59;102265.25;4951877;28;20077;-79
2023/09/24 10:06:10;;;;;;;5.93;1.67;;;;;;;19.14;63.01;102269.38;4943675;28;20032;-79
2023/09/24 10:08:44;;;;;;;5.50;1.88;;;;;;;19.14;61.44;102255.41;4929812;28;20098;-78
2023/09/24 10:11:31;;;;;;;7.45;1.33;;;;;;;19.11;60.16;102255.75;4946398;28;20035;-77
2023/09/24 10:14:05;;;;;;;5.82;1.30;;;;;;;19.20;59.29;102244.97;4949371;28;20508;-76
2023/09/24 10:16:37;;;;;;;6.47;1.08;;;;;;;19.36;62.01;102245.81;4947372;28;20031;-78
2023/09/24 10:19:08;;;;;;;7.53;1.17;;;;;;;19.55;60.79;102240.06;4956205;28;20173;-79
2023/09/24 10:21:44;;;;;;;4.05;0.75;;;;;;;19.69;59.52;102234.97;4955851;28;20050;-77
2023/09/24 10:24:12;;;;;;;4.35;1.20;;;;;;;19.75;57.75;102223.75;4936588;28;20125;-79
2023/09/24 10:26:45;;;;;;;3.78;1.10;;;;;;;19.68;54.78;102220.16;4935634;28;20051;-78
2023/09/24 10:29:11;;;;;;;;;;;;;;;19.34;53.81;102218.88;4951729;28;20054;-77
2023/09/24 10:32:09;;;;;;;5.15;0.93;;;;;;;19.55;57.21;102215.53;4946714;28;19922;-78
2023/09/24 10:34:57;;;;;;;5.15;0.90;;;;;;;19.38;52.45;102217.53;4933568;28;20521;-75
2023/09/24 10:37:31;;;;;;;3.22;1.25;;;;;;;19.54;52.44;102214.72;4929279;28;20053;-77
2023/09/24 10:39:59;;;;;;;2.80;0.80;;;;;;;19.72;51.30;102217.03;4936882;28;20166;-79
2023/09/24 10:42:39;;;;;;;2.67;1.00;;;;;;;19.71;52.68;102218.00;4943107;28;20051;-77
2023/09/24 10:45:08;;;;;;;3.40;1.05;;;;;;;19.64;53.92;102206.56;4956729;28;20047;-78
2023/09/24 10:47:38;;;;;;;3.22;0.90;;;;;;;19.65;51.28;102208.22;4934646;28;20038;-77
2023/09/24 10:50:03;;;;;;;4.82;0.80;;;;;;;19.53;52.43;102204.38;4947775;28;20077;-78
2023/09/24 10:52:45;;;;;;;3.72;1.00;;;;;;;19.69;50.85;102204.22;4950347;28;20051;-77
2023/09/24 10:55:11;;;;;;;4.10;1.20;;;;;;;19.63;49.10;102205.75;4949427;28;20046;-78
2023/09/24 10:57:37;;;;;;;2.38;0.70;;;;;;;19.72;50.67;102200.38;4947707;28;20118;-77
2023/09/24 11:00:03;;;;;;;2.75;0.90;;;;;;;19.96;50.70;102200.09;4938297;28;20037;-77
2023/09/24 11:02:28;;;;;;;3.78;0.90;;;;;;;20.01;51.09;102194.31;4953613;28;20598;-76
2023/09/24 11:04:54;;;;;;;4.55;0.85;;;;;;;19.70;52.42;102183.97;4954684;28;20047;-77
2023/09/24 11:07:19;;;;;;;2.50;0.70;;;;;;;19.97;50.99;102180.69;4958706;28;20401;-77
2023/09/24 11:09:51;;;;;;;2.58;0.60;;;;;;;19.94;52.59;102180.25;4958290;28;20034;-77
2023/09/24 11:12:17;;;;;;;8.90;1.00;;;;;;;20.07;52.46;102188.28;4918222;28;20062;-78
2023/09/24 11:14:52;;;;;;;3.03;1.08;;;;;;;20.21;50.98;102176.06;4951651;28;20774;-78
2023/09/24 11:17:18;;;;;;;1.98;0.60;;;;;;;20.28;52.36;102174.34;4937313;28;20419;-78
2023/09/24 11:19:49;;;;;;;3.38;0.80;;;;;;;20.25;47.21;102173.88;4935762;28;20051;-76
2023/09/24 11:22:32;;;;;;;2.33;0.70;;;;;;;20.27;51.35;102172.72;4938745;28;20541;-76
2023/09/24 11:25:10;;;;;;;7.90;1.05;;;;;;;20.28;50.54;102176.97;4938514;28;20046;-79
2023/09/24 11:27:50;;;;;;;5.35;0.60;;;;;;;20.25;50.47;102179.16;4938683;28;20039;-76